Time;durP1;ratioP1;P1;durP2;ratioP2;P2;SDS_P1;SDS_P2;PMS_P1;PMS_P2;Temp;Humidity;BMP_temperature;BMP_pressure;BME280_temperature;BME280_humidity;BME280_pressure;Samples;Min_cycle;Max_cycle;Signal;HPM_P1;HPM_P2
2022/06/02 00:00:13;;;;;;;3.38;3.20;;;12.30;99.90;;;;;;6335344;28;20270;-68
2022/06/02 00:03:29;;;;;;;3.35;3.25;;;12.40;99.90;;;;;;6352346;28;20295;-70
2022/06/02 00:06:44;;;;;;;2.92;2.83;;;12.30;99.90;;;;;;6337596;28;20286;-68
2022/06/02 00:10:05;;;;;;;3.50;3.35;;;12.40;99.90;;;;;;6336579;28;20298;-68
2022/06/02 00:13:23;;;;;;;3.83;3.30;;;12.40;99.90;;;;;;6340038;28;20572;-68
2022/06/02 00:16:35;;;;;;;3.60;3.38;;;12.40;99.90;;;;;;6345806;28;20509;-70
2022/06/02 00:19:47;;;;;;;3.67;3.38;;;12.50;99.90;;;;;;6337765;28;20293;-70
2022/06/02 00:23:24;;;;;;;3.63;3.42;;;12.30;99.90;;;;;;6336875;28;20293;-68
2022/06/02 00:26:43;;;;;;;3.20;3.10;;;12.30;99.90;;;;;;6335417;28;20293;-69
2022/06/02 00:29:57;;;;;;;3.22;3.10;;;12.30;99.90;;;;;;6335128;28;20385;-68
2022/06/02 00:33:16;;;;;;;3.50;3.30;;;12.30;99.90;;;;;;6335049;28;20298;-69
2022/06/02 00:36:26;;;;;;;3.80;3.70;;;12.40;99.90;;;;;;6335305;28;20269;-68
2022/06/02 00:39:35;;;;;;;3.75;3.45;;;12.30;99.90;;;;;;6334541;28;20425;-67
2022/06/02 00:42:52;;;;;;;3.40;3.30;;;12.30;99.90;;;;;;6335015;28;20297;-68
2022/06/02 00:46:06;;;;;;;3.35;3.15;;;12.20;99.90;;;;;;6335854;28;20294;-68
2022/06/02 00:49:20;;;;;;;3.80;3.60;;;12.30;99.90;;;;;;6335127;28;20480;-69
2022/06/02 00:52:31;;;;;;;3.60;3.50;;;12.30;99.90;;;;;;6335068;28;20298;-68
2022/06/02 00:59:32;;;;;;;3.35;3.10;;;12.30;99.90;;;;;;6281834;28;20295;-68
2022/06/02 01:02:50;;;;;;;3.50;3.30;;;12.30;99.90;;;;;;6260004;28;20641;-69
2022/06/02 01:06:24;;;;;;;4.20;3.90;;;12.20;99.90;;;;;;6309981;28;20294;-69
2022/06/02 01:09:48;;;;;;;3.70;3.50;;;12.20;99.90;;;;;;6308793;28;20328;-69
2022/06/02 01:13:21;;;;;;;3.20;3.10;;;12.10;99.90;;;;;;6309412;28;20589;-69
2022/06/02 01:16:44;;;;;;;3.30;3.08;;;12.10;99.90;;;;;;6300214;28;20274;-69
2022/06/02 01:20:04;;;;;;;3.17;3.08;;;12.10;99.90;;;;;;6309555;28;20294;-68
2022/06/02 01:23:53;;;;;;;3.33;3.20;;;12.20;99.90;;;;;;6308685;28;20318;-68
2022/06/02 01:27:20;;;;;;;3.20;3.10;;;12.20;99.90;;;;;;6307785;28;20295;-68
2022/06/02 01:30:47;;;;;;;2.72;2.72;;;12.20;99.90;;;;;;6309900;28;20398;-68
2022/06/02 01:34:00;;;;;;;2.80;2.80;;;12.20;99.90;;;;;;6309185;28;20573;-70
2022/06/02 01:37:12;;;;;;;3.00;2.90;;;12.20;99.90;;;;;;6309226;28;20273;-68
2022/06/02 01:40:28;;;;;;;2.75;2.65;;;12.30;99.90;;;;;;6309328;28;20553;-68
2022/06/02 01:43:43;;;;;;;2.65;2.53;;;12.20;99.90;;;;;;6307957;28;20294;-68
2022/06/02 01:46:54;;;;;;;2.95;2.70;;;12.30;99.90;;;;;;6309407;28;20290;-68
2022/06/02 01:50:14;;;;;;;2.88;2.67;;;12.30;99.90;;;;;;6308665;28;20274;-68
2022/06/02 01:53:45;;;;;;;2.50;2.50;;;12.30;99.90;;;;;;6313585;28;20473;-68
2022/06/02 01:57:06;;;;;;;2.65;2.55;;;12.40;99.90;;;;;;6313867;28;20270;-69
2022/06/02 02:00:15;;;;;;;2.92;2.83;;;12.20;99.90;;;;;;6312807;28;20271;-69
2022/06/02 02:03:30;;;;;;;2.22;2.22;;;12.30;99.90;;;;;;6313206;28;20294;-69
2022/06/02 02:06:42;;;;;;;2.40;2.40;;;12.30;99.90;;;;;;6314327;28;20290;-69
2022/06/02 02:09:59;;;;;;;2.50;2.50;;;12.20;99.90;;;;;;6313705;28;20290;-69
2022/06/02 02:13:17;;;;;;;2.38;2.38;;;12.30;99.90;;;;;;6313214;28;20295;-69
2022/06/02 02:16:32;;;;;;;2.67;2.40;;;12.20;99.90;;;;;;6313568;28;20276;-69
2022/06/02 02:19:48;;;;;;;2.25;2.25;;;12.20;99.90;;;;;;6312708;28;20313;-68
2022/06/02 02:23:02;;;;;;;2.30;2.30;;;12.20;99.90;;;;;;6312799;28;20290;-68
2022/06/02 02:26:13;;;;;;;2.30;2.30;;;12.20;99.90;;;;;;6313895;28;20417;-68
2022/06/02 02:29:28;;;;;;;2.42;2.40;;;12.30;99.90;;;;;;6312896;28;20318;-69
2022/06/02 02:32:41;;;;;;;2.45;2.35;;;12.20;99.90;;;;;;6312909;28;20574;-68
2022/06/02 02:35:58;;;;;;;2.40;2.30;;;12.10;99.90;;;;;;6313725;28;20259;-69
2022/06/02 02:39:09;;;;;;;2.17;2.08;;;12.10;99.90;;;;;;6313013;28;20303;-68
2022/06/02 02:42:21;;;;;;;2.00;2.00;;;12.10;99.90;;;;;;6311829;28;20454;-68
2022/06/02 02:45:44;;;;;;;1.90;1.90;;;12.20;99.90;;;;;;6313060;28;20270;-68
2022/06/02 02:48:56;;;;;;;2.85;1.75;;;12.30;99.90;;;;;;6313007;28;20298;-68
2022/06/02 02:52:15;;;;;;;1.88;1.83;;;12.20;99.90;;;;;;6314214;28;20432;-70
2022/06/02 02:55:22;;;;;;;1.80;1.80;;;12.30;99.90;;;;;;6311583;28;20434;-69
2022/06/02 02:58:38;;;;;;;2.03;2.03;;;12.30;99.90;;;;;;6304772;28;20302;-70
2022/06/02 03:01:51;;;;;;;2.13;2.03;;;12.30;99.90;;;;;;6311754;28;20286;-68
2022/06/02 03:05:06;;;;;;;1.95;1.95;;;12.20;99.90;;;;;;6310380;28;20412;-68
2022/06/02 03:08:24;;;;;;;2.17;2.08;;;12.20;99.90;;;;;;6311821;28;20310;-67
2022/06/02 03:11:47;;;;;;;1.73;1.73;;;12.20;99.90;;;;;;6312110;28;20515;-68
2022/06/02 03:15:09;;;;;;;2.50;2.00;;;12.20;99.90;;;;;;6312170;28;20306;-69
2022/06/02 03:18:48;;;;;;;1.80;1.80;;;12.20;99.90;;;;;;6312186;28;20299;-68
2022/06/02 03:21:58;;;;;;;1.60;1.60;;;12.20;99.90;;;;;;6312576;28;20271;-68
2022/06/02 03:25:11;;;;;;;1.85;1.85;;;12.20;99.90;;;;;;6311910;28;20275;-68
2022/06/02 03:28:25;;;;;;;1.65;1.65;;;12.20;99.90;;;;;;6311678;28;20318;-69
2022/06/02 03:31:40;;;;;;;1.85;1.77;;;12.20;99.90;;;;;;6311933;28;20271;-67
2022/06/02 03:34:54;;;;;;;1.75;1.75;;;12.20;99.90;;;;;;6311605;28;20294;-68
2022/06/02 03:38:24;;;;;;;1.98;1.90;;;12.20;99.90;;;;;;6311006;28;20298;-70
2022/06/02 03:41:59;;;;;;;2.08;1.98;;;12.20;99.90;;;;;;6311518;28;20334;-68
2022/06/02 03:45:22;;;;;;;1.95;1.90;;;12.10;99.90;;;;;;6311130;28;20354;-68
2022/06/02 03:49:01;;;;;;;2.00;2.00;;;12.10;99.90;;;;;;6310925;28;20303;-68
2022/06/02 03:52:37;;;;;;;2.08;1.98;;;12.10;99.90;;;;;;6310994;28;20560;-68
2022/06/02 03:55:56;;;;;;;2.10;2.10;;;12.10;99.90;;;;;;6311850;28;20346;-68
2022/06/02 03:59:23;;;;;;;3.50;2.17;;;12.10;99.90;;;;;;6310887;28;20299;-68
2022/06/02 04:02:33;;;;;;;2.35;2.22;;;12.10;99.90;;;;;;6331704;28;20289;-68
2022/06/02 04:05:53;;;;;;;2.00;1.95;;;12.10;99.90;;;;;;6335877;28;20265;-68
2022/06/02 04:09:14;;;;;;;2.33;2.15;;;12.00;99.90;;;;;;6335838;28;20297;-69
2022/06/02 04:16:39;;;;;;;2.30;2.30;;;12.10;99.90;;;;;;6334348;28;20378;-69
2022/06/02 04:23:40;;;;;;;2.22;2.22;;;11.90;99.90;;;;;;6335749;28;20290;-68
2022/06/02 04:27:03;;;;;;;2.30;2.20;;;11.90;99.90;;;;;;6335748;28;20266;-69
2022/06/02 04:30:18;;;;;;;1.90;1.90;;;11.90;99.90;;;;;;6335323;28;20466;-68
2022/06/02 04:33:30;;;;;;;1.88;1.88;;;11.90;99.90;;;;;;6335308;28;20546;-69
2022/06/02 04:36:43;;;;;;;2.03;1.98;;;11.90;99.90;;;;;;6336124;28;20274;-68
2022/06/02 04:39:55;;;;;;;2.17;2.08;;;11.80;99.90;;;;;;6334846;28;20596;-69
2022/06/02 04:43:07;;;;;;;1.77;1.77;;;11.80;99.90;;;;;;6333622;28;20301;-69
2022/06/02 04:46:34;;;;;;;1.70;1.70;;;11.80;99.90;;;;;;6335143;28;20270;-68
2022/06/02 04:49:47;;;;;;;1.98;1.67;;;11.90;99.90;;;;;;6334756;28;20298;-69
2022/06/02 04:53:00;;;;;;;1.70;1.70;;;11.90;99.90;;;;;;6334687;28;20374;-69
2022/06/02 04:56:14;;;;;;;1.80;1.70;;;11.80;99.90;;;;;;6335195;28;20269;-69
2022/06/02 04:59:23;;;;;;;1.80;1.80;;;11.80;99.90;;;;;;6334764;28;20297;-68
2022/06/02 05:02:41;;;;;;;2.15;1.88;;;11.80;99.90;;;;;;6334151;28;20290;-68
2022/06/02 05:05:59;;;;;;;2.10;2.10;;;11.80;99.90;;;;;;6335292;28;20269;-69
2022/06/02 05:09:13;;;;;;;2.22;2.08;;;11.70;99.90;;;;;;6334401;28;20297;-68
2022/06/02 05:12:33;;;;;;;2.00;2.00;;;11.80;99.90;;;;;;6309411;28;20310;-68
2022/06/02 05:16:07;;;;;;;4.90;1.90;;;11.90;99.90;;;;;;6310373;28;20267;-70
2022/06/02 05:19:56;;;;;;;1.88;1.77;;;11.70;99.90;;;;;;6309644;28;20297;-69
2022/06/02 05:23:30;;;;;;;1.77;1.77;;;11.70;99.90;;;;;;6300330;28;20294;-69
2022/06/02 05:27:11;;;;;;;1.80;1.80;;;11.70;99.90;;;;;;6317525;28;20272;-68
2022/06/02 05:30:56;;;;;;;1.85;1.85;;;11.80;99.90;;;;;;6320225;28;20294;-67
2022/06/02 05:34:24;;;;;;;2.00;2.00;;;11.70;99.90;;;;;;6310242;28;20292;-68
2022/06/02 05:37:45;;;;;;;2.40;2.30;;;11.80;99.90;;;;;;6307986;28;20299;-68
2022/06/02 05:40:58;;;;;;;2.20;2.10;;;11.80;99.90;;;;;;6309178;28;20270;-69
2022/06/02 05:44:13;;;;;;;2.25;2.15;;;11.80;99.90;;;;;;6309294;28;20286;-69
2022/06/02 05:47:31;;;;;;;2.50;2.50;;;11.80;99.90;;;;;;6308950;28;20573;-69
2022/06/02 05:50:44;;;;;;;2.80;2.60;;;11.80;99.90;;;;;;6309475;28;20286;-69
2022/06/02 05:54:10;;;;;;;2.97;2.75;;;11.80;99.90;;;;;;6308826;28;20295;-68
2022/06/02 05:57:34;;;;;;;2.65;2.38;;;11.70;99.90;;;;;;6308597;28;20270;-69
2022/06/02 06:00:53;;;;;;;2.60;2.60;;;11.80;99.90;;;;;;6287409;28;20600;-68
2022/06/02 06:04:26;;;;;;;2.42;2.33;;;11.80;99.90;;;;;;6333909;28;20290;-67
2022/06/02 06:07:51;;;;;;;2.38;2.33;;;11.80;99.90;;;;;;6333695;28;20290;-68
2022/06/02 06:11:10;;;;;;;2.80;2.80;;;11.90;99.90;;;;;;6334384;28;20298;-67
2022/06/02 06:14:30;;;;;;;2.78;2.67;;;11.70;99.90;;;;;;6333710;28;20294;-67
2022/06/02 06:18:06;;;;;;;3.00;2.90;;;11.80;99.90;;;;;;6333708;28;20285;-68
2022/06/02 06:21:26;;;;;;;3.50;2.65;;;11.80;99.90;;;;;;6334895;28;20278;-68
2022/06/02 06:24:52;;;;;;;2.80;2.80;;;11.80;99.90;;;;;;6332829;28;20559;-68
2022/06/02 06:28:10;;;;;;;3.15;2.88;;;11.70;99.90;;;;;;6332042;28;20302;-69
2022/06/02 06:31:26;;;;;;;2.90;2.70;;;11.70;99.90;;;;;;6332331;28;20285;-69
2022/06/02 06:34:46;;;;;;;3.10;3.00;;;11.70;99.90;;;;;;6326009;28;20305;-68
2022/06/02 06:38:27;;;;;;;2.60;2.60;;;11.80;99.90;;;;;;6333733;28;20294;-67
2022/06/02 06:41:52;;;;;;;2.83;2.72;;;11.80;99.90;;;;;;6336523;28;20281;-68
2022/06/02 06:45:05;;;;;;;2.83;2.60;;;11.80;99.90;;;;;;6337488;28;20305;-68
2022/06/02 06:48:21;;;;;;;2.88;2.78;;;11.70;99.90;;;;;;6337581;28;20301;-68
2022/06/02 06:51:38;;;;;;;2.67;2.63;;;11.80;99.90;;;;;;6337651;28;20286;-68
2022/06/02 06:54:53;;;;;;;3.00;3.00;;;11.90;99.90;;;;;;6336440;28;20481;-69
2022/06/02 06:58:08;;;;;;;3.05;2.95;;;11.80;99.90;;;;;;6338110;28;20317;-68
2022/06/02 07:01:19;;;;;;;3.05;2.95;;;11.90;99.90;;;;;;6329444;28;20550;-69
2022/06/02 07:04:39;;;;;;;3.20;3.10;;;11.80;99.90;;;;;;6312402;28;20322;-70
2022/06/02 07:07:56;;;;;;;3.42;3.28;;;11.70;99.90;;;;;;6312051;28;20286;-69
2022/06/02 07:12:50;;;;;;;3.00;2.90;;;11.70;99.90;;;;;;6312539;28;20286;-69
2022/06/02 07:14:47;;;;;;;3.13;3.03;;;11.60;99.90;;;;;;6312084;28;20294;-68
2022/06/02 07:18:00;;;;;;;2.83;2.83;;;11.70;99.90;;;;;;6311527;28;20299;-68
2022/06/02 07:21:24;;;;;;;3.15;3.05;;;11.80;99.90;;;;;;6311332;28;20274;-69
2022/06/02 07:24:38;;;;;;;4.03;3.28;;;11.80;99.90;;;;;;6310438;28;20295;-68
2022/06/02 07:27:51;;;;;;;3.13;3.03;;;11.80;99.90;;;;;;6311279;28;20294;-69
2022/06/02 07:31:12;;;;;;;2.95;2.85;;;11.90;99.90;;;;;;6311496;28;20286;-69
2022/06/02 07:34:35;;;;;;;3.45;3.17;;;11.90;99.90;;;;;;6311451;28;20298;-68
2022/06/02 07:37:47;;;;;;;7.75;3.20;;;11.80;99.90;;;;;;6311683;28;20290;-70
2022/06/02 07:41:09;;;;;;;3.33;3.28;;;11.80;99.90;;;;;;6311888;28;20561;-69
2022/06/02 07:44:48;;;;;;;3.20;3.13;;;11.90;99.90;;;;;;6311314;28;20302;-69
2022/06/02 07:48:24;;;;;;;2.90;2.90;;;11.90;99.90;;;;;;6311219;28;20597;-68
2022/06/02 07:51:36;;;;;;;2.97;2.88;;;11.90;99.90;;;;;;6308830;28;20287;-68
2022/06/02 07:54:51;;;;;;;2.90;2.80;;;11.80;99.90;;;;;;6313551;28;20294;-68
2022/06/02 07:58:09;;;;;;;3.15;3.05;;;12.00;99.90;;;;;;6310031;28;20298;-69
2022/06/02 08:01:47;;;;;;;3.17;3.00;;;12.00;99.90;;;;;;6320091;28;20397;-70
2022/06/02 08:05:03;;;;;;;3.42;3.38;;;12.00;99.90;;;;;;6338389;28;20315;-69
2022/06/02 08:08:21;;;;;;;3.20;3.15;;;11.90;99.90;;;;;;6338243;28;20313;-67
2022/06/02 08:11:37;;;;;;;3.10;3.00;;;11.90;99.90;;;;;;6337303;28;20286;-68
2022/06/02 08:14:54;;;;;;;3.50;3.33;;;12.00;99.90;;;;;;6336079;28;20468;-69
2022/06/02 08:18:20;;;;;;;3.05;3.00;;;12.00;99.90;;;;;;6336092;28;20294;-68
2022/06/02 08:21:31;;;;;;;3.38;3.10;;;12.10;99.90;;;;;;6336456;28;20270;-70
2022/06/02 08:24:52;;;;;;;3.60;3.50;;;12.10;99.90;;;;;;6336258;28;20293;-68
2022/06/02 08:28:15;;;;;;;3.60;3.50;;;12.10;99.90;;;;;;6336523;28;20293;-69
2022/06/02 08:31:53;;;;;;;3.22;3.13;;;12.10;99.90;;;;;;6335680;28;20486;-68
2022/06/02 08:35:10;;;;;;;3.50;3.35;;;12.00;99.90;;;;;;6334886;28;20273;-68
2022/06/02 08:38:37;;;;;;;3.47;3.38;;;12.10;99.90;;;;;;6350812;28;20293;-68
2022/06/02 08:42:18;;;;;;;3.67;3.45;;;12.00;99.90;;;;;;6335457;28;20269;-69
2022/06/02 08:46:09;;;;;;;3.28;3.13;;;12.10;99.90;;;;;;6335072;28;20277;-69
2022/06/02 08:50:10;;;;;;;2.83;2.83;;;11.90;99.90;;;;;;6304967;28;20301;-68
2022/06/02 08:54:28;;;;;;;3.53;2.80;;;12.10;99.90;;;;;;6334337;28;20302;-69
2022/06/02 08:58:18;;;;;;;2.83;2.72;;;12.20;99.90;;;;;;6335003;28;20350;-68
2022/06/02 09:01:48;;;;;;;3.22;3.03;;;12.00;99.90;;;;;;6315618;28;20436;-69
2022/06/02 09:05:22;;;;;;;3.13;2.90;;;12.00;99.90;;;;;;6334827;28;20293;-68
2022/06/02 09:08:54;;;;;;;2.92;2.83;;;12.10;99.90;;;;;;6334900;28;20293;-69
2022/06/02 09:12:30;;;;;;;3.33;3.13;;;12.20;99.90;;;;;;6334674;28;20295;-69
2022/06/02 09:16:18;;;;;;;3.25;3.15;;;12.00;99.90;;;;;;6335372;28;20353;-69
2022/06/02 09:19:40;;;;;;;3.40;3.30;;;12.00;99.90;;;;;;6334822;28;20297;-68
2022/06/02 09:23:11;;;;;;;3.58;3.47;;;12.10;99.90;;;;;;6334813;28;20310;-69
2022/06/02 09:26:51;;;;;;;3.00;2.90;;;12.00;99.90;;;;;;6335038;28;20443;-69
2022/06/02 09:29:59;;;;;;;3.10;3.10;;;12.10;99.90;;;;;;6334398;28;20313;-68
2022/06/02 09:33:37;;;;;;;2.97;2.95;;;12.10;99.90;;;;;;6349779;28;20608;-68
2022/06/02 09:37:24;;;;;;;3.53;3.33;;;12.20;99.90;;;;;;6335124;28;20552;-68
2022/06/02 09:40:45;;;;;;;3.20;3.10;;;12.20;99.90;;;;;;6333961;28;20273;-69
2022/06/02 09:44:17;;;;;;;3.28;3.17;;;12.30;99.90;;;;;;6334398;28;20317;-68
2022/06/02 09:47:50;;;;;;;3.42;3.33;;;12.30;99.90;;;;;;6334805;28;20546;-68
2022/06/02 09:51:19;;;;;;;3.22;3.13;;;12.30;99.90;;;;;;6334571;28;20273;-65
2022/06/02 09:54:58;;;;;;;3.08;2.92;;;12.30;99.90;;;;;;6334046;28;20297;-68
2022/06/02 09:58:41;;;;;;;3.35;3.25;;;12.40;99.90;;;;;;6333219;28;20293;-67
2022/06/02 10:01:57;;;;;;;3.10;3.10;;;12.50;99.90;;;;;;6334335;28;20290;-68
2022/06/02 10:05:41;;;;;;;2.85;2.83;;;12.50;99.90;;;;;;6333692;28;20270;-69
2022/06/02 10:09:03;;;;;;;2.97;2.88;;;12.50;99.90;;;;;;6333941;28;20298;-68
2022/06/02 10:16:08;;;;;;;3.15;3.00;;;12.50;99.90;;;;;;6339114;28;20289;-69
2022/06/02 10:19:46;;;;;;;3.15;3.05;;;12.50;99.90;;;;;;6338599;28;20456;-69
2022/06/02 10:23:00;;;;;;;2.72;2.72;;;12.70;99.90;;;;;;6339273;28;20294;-67
2022/06/02 10:26:21;;;;;;;2.97;2.90;;;12.70;99.90;;;;;;6339736;28;20270;-68
2022/06/02 10:30:19;;;;;;;3.38;3.20;;;12.70;99.90;;;;;;6338948;28;20293;-68
2022/06/02 10:33:43;;;;;;;2.53;2.53;;;12.70;99.90;;;;;;6354902;28;20297;-68
2022/06/02 10:37:09;;;;;;;2.90;2.85;;;12.70;99.90;;;;;;6340665;28;20263;-69
2022/06/02 10:40:23;;;;;;;3.00;2.85;;;12.70;99.90;;;;;;6346741;28;20266;-67
2022/06/02 10:44:08;;;;;;;2.90;2.75;;;12.70;99.90;;;;;;6352304;28;20297;-70
2022/06/02 10:48:06;;;;;;;2.60;2.50;;;12.60;99.90;;;;;;6358594;28;20285;-68
2022/06/02 10:51:54;;;;;;;3.03;3.00;;;12.50;99.90;;;;;;6271801;28;20269;-69
2022/06/02 10:56:01;;;;;;;2.78;2.78;;;12.60;99.90;;;;;;6337033;28;20293;-69
2022/06/02 10:59:50;;;;;;;3.08;2.97;;;12.60;99.90;;;;;;6285522;28;20299;-68
2022/06/02 11:03:47;;;;;;;2.92;2.83;;;12.70;99.90;;;;;;6336100;28;20624;-68
2022/06/02 11:07:51;;;;;;;2.63;2.63;;;12.80;99.90;;;;;;6338598;28;20273;-68
2022/06/02 11:11:34;;;;;;;2.40;2.40;;;12.80;99.90;;;;;;6324344;28;20286;-68
2022/06/02 11:15:41;;;;;;;2.80;2.80;;;12.90;99.90;;;;;;6285366;28;20294;-70
2022/06/02 11:19:23;;;;;;;2.80;2.70;;;12.70;99.90;;;;;;6298353;28;20298;-68
2022/06/02 11:23:07;;;;;;;3.05;2.95;;;12.70;99.90;;;;;;6312096;28;20286;-69
2022/06/02 11:27:17;;;;;;;2.85;2.70;;;12.80;99.90;;;;;;6312937;28;20553;-69
2022/06/02 11:30:59;;;;;;;2.97;2.78;;;12.80;99.90;;;;;;6309822;28;20286;-68
2022/06/02 11:34:19;;;;;;;2.97;2.97;;;12.80;99.90;;;;;;6292767;28;20302;-68
2022/06/02 11:37:45;;;;;;;2.53;2.53;;;12.90;99.90;;;;;;6311715;28;20314;-68
2022/06/02 11:41:31;;;;;;;2.95;2.85;;;13.00;99.90;;;;;;6312028;28;20271;-68
2022/06/02 11:44:47;;;;;;;2.95;2.95;;;12.90;99.90;;;;;;6311223;28;20303;-70
2022/06/02 11:48:17;;;;;;;3.30;3.05;;;13.00;99.90;;;;;;6310519;28;20581;-68
2022/06/02 11:51:54;;;;;;;3.25;3.05;;;13.00;99.90;;;;;;6312155;28;20270;-68
2022/06/02 11:55:23;;;;;;;3.10;3.00;;;12.90;99.90;;;;;;6311078;28;20295;-69
2022/06/02 11:59:22;;;;;;;2.90;2.80;;;12.90;99.90;;;;;;6311485;28;20299;-70
2022/06/02 12:03:04;;;;;;;3.20;2.97;;;12.90;99.90;;;;;;6327371;28;20290;-68
2022/06/02 12:06:42;;;;;;;4.05;3.10;;;13.00;99.90;;;;;;6325454;28;20275;-68
2022/06/02 12:10:28;;;;;;;2.85;2.85;;;13.00;99.90;;;;;;6335205;28;20434;-68
2022/06/02 12:13:56;;;;;;;2.97;2.88;;;13.10;99.90;;;;;;6335666;28;20286;-68
2022/06/02 12:17:27;;;;;;;3.05;2.95;;;13.00;99.90;;;;;;6336133;28;20274;-69
2022/06/02 12:21:19;;;;;;;2.95;2.90;;;13.00;99.90;;;;;;6336504;28;20274;-68
2022/06/02 12:24:49;;;;;;;3.15;3.05;;;13.00;99.90;;;;;;6335854;28;20294;-67
2022/06/02 12:28:42;;;;;;;25.70;8.32;;;13.00;99.90;;;;;;6335157;28;20294;-68
2022/06/02 12:32:25;;;;;;;3.28;3.15;;;13.10;99.90;;;;;;6336643;28;20270;-67
2022/06/02 12:36:02;;;;;;;3.10;2.92;;;13.00;99.90;;;;;;6335048;28;20298;-68
2022/06/02 12:39:42;;;;;;;3.33;3.13;;;13.10;99.90;;;;;;6351331;28;20293;-67
2022/06/02 12:43:44;;;;;;;2.85;2.65;;;13.00;99.90;;;;;;6335992;28;20294;-68
2022/06/02 12:47:11;;;;;;;3.00;3.00;;;13.00;99.90;;;;;;6335831;28;20569;-68
2022/06/02 12:50:40;;;;;;;2.92;2.83;;;12.90;99.90;;;;;;6335556;28;20273;-67
2022/06/02 12:54:28;;;;;;;3.13;3.05;;;12.90;99.90;;;;;;6334666;28;20295;-68
2022/06/02 12:58:22;;;;;;;3.38;3.30;;;13.00;99.90;;;;;;6335789;28;20289;-68
2022/06/02 13:01:51;;;;;;;2.83;2.80;;;13.00;99.90;;;;;;6335149;28;20293;-70
2022/06/02 13:05:38;;;;;;;3.58;3.35;;;13.00;99.90;;;;;;6335127;28;20294;-68
2022/06/02 13:09:31;;;;;;;2.97;2.88;;;13.00;99.90;;;;;;6335273;28;20226;-70
2022/06/02 13:13:09;;;;;;;3.50;3.30;;;13.00;99.90;;;;;;6309350;28;20299;-69
2022/06/02 13:16:53;;;;;;;3.42;3.42;;;13.00;99.90;;;;;;6310141;28;20290;-70
2022/06/02 13:20:31;;;;;;;3.40;3.20;;;13.00;99.90;;;;;;6309697;28;20270;-69
2022/06/02 13:24:18;;;;;;;3.28;3.08;;;13.00;99.90;;;;;;6310125;28;20294;-69
2022/06/02 13:28:01;;;;;;;3.20;3.10;;;13.00;99.90;;;;;;6290153;28;20293;-69
2022/06/02 13:31:58;;;;;;;3.40;3.30;;;13.00;99.90;;;;;;6309988;28;20270;-68
2022/06/02 13:36:14;;;;;;;3.40;3.15;;;13.00;99.90;;;;;;6309623;28;20294;-69
2022/06/02 13:40:07;;;;;;;4.82;3.63;;;13.00;99.90;;;;;;6285652;28;20294;-69
2022/06/02 13:43:49;;;;;;;3.67;3.58;;;13.10;99.90;;;;;;6306917;28;20301;-69
2022/06/02 13:47:39;;;;;;;3.75;3.65;;;13.00;99.90;;;;;;6310963;28;20270;-68
2022/06/02 13:51:38;;;;;;;3.58;3.47;;;13.00;99.90;;;;;;6314161;28;20270;-69
2022/06/02 13:59:38;;;;;;;3.63;3.35;;;13.20;99.90;;;;;;6314471;28;20294;-69
2022/06/02 14:03:15;;;;;;;3.45;3.25;;;13.20;99.90;;;;;;6313576;28;20289;-69
2022/06/02 14:06:23;;;;;;;3.60;3.40;;;13.10;99.90;;;;;;6314553;28;20270;-70
2022/06/02 14:09:48;;;;;;;3.40;3.20;;;13.20;99.90;;;;;;6315179;28;20314;-69
2022/06/02 14:13:15;;;;;;;3.55;3.28;;;13.20;99.90;;;;;;6339148;28;20313;-70
2022/06/02 14:16:39;;;;;;;3.90;3.70;;;13.20;99.90;;;;;;6339820;28;20285;-69
2022/06/02 14:20:15;;;;;;;3.88;3.67;;;13.30;99.90;;;;;;6354177;28;20297;-70
2022/06/02 14:23:39;;;;;;;3.28;3.20;;;13.30;99.90;;;;;;6338761;28;20309;-69
2022/06/02 14:26:59;;;;;;;3.80;3.10;;;13.30;99.90;;;;;;6339142;28;20269;-69
2022/06/02 14:30:11;;;;;;;3.13;3.00;;;13.10;99.90;;;;;;6338685;28;20274;-70
2022/06/02 14:33:25;;;;;;;3.50;3.40;;;13.20;99.90;;;;;;6339018;28;20409;-69
2022/06/02 14:36:38;;;;;;;3.15;3.05;;;13.20;99.90;;;;;;6338669;28;20285;-70
2022/06/02 14:39:57;;;;;;;3.60;3.40;;;13.20;99.90;;;;;;6338264;28;20314;-69
2022/06/02 14:43:23;;;;;;;2.95;2.85;;;13.20;99.90;;;;;;6338482;28;20298;-70
2022/06/02 14:47:04;;;;;;;2.95;2.95;;;13.10;99.90;;;;;;6338955;28;20298;-68
2022/06/02 14:50:22;;;;;;;2.97;2.88;;;13.20;99.90;;;;;;6338398;28;20274;-68
2022/06/02 14:53:49;;;;;;;3.65;3.53;;;13.30;99.90;;;;;;6338191;28;20314;-69
2022/06/02 14:57:14;;;;;;;3.20;3.10;;;13.30;99.90;;;;;;6338476;28;20289;-68
2022/06/02 15:00:26;;;;;;;2.97;2.80;;;13.40;99.90;;;;;;6328692;28;20436;-68
2022/06/02 15:04:19;;;;;;;3.30;3.20;;;13.40;99.90;;;;;;6330347;28;20289;-69
2022/06/02 15:07:57;;;;;;;3.28;3.17;;;13.40;99.90;;;;;;6337492;28;20294;-69
2022/06/02 15:11:10;;;;;;;3.38;3.38;;;13.30;99.90;;;;;;6338011;28;20454;-70
2022/06/02 15:14:43;;;;;;;2.78;2.78;;;13.40;99.90;;;;;;6338119;28;20592;-69
2022/06/02 15:18:05;;;;;;;2.83;2.83;;;13.50;99.90;;;;;;6336358;28;20297;-69
2022/06/02 15:21:24;;;;;;;3.65;3.45;;;13.50;99.90;;;;;;6338163;28;20269;-69
2022/06/02 15:24:42;;;;;;;3.42;3.30;;;13.50;99.90;;;;;;6337126;28;20294;-70
2022/06/02 15:28:06;;;;;;;3.55;3.30;;;13.50;99.90;;;;;;6337413;28;20294;-70
2022/06/02 15:31:16;;;;;;;3.15;3.00;;;13.50;99.90;;;;;;6319495;28;20350;-69
2022/06/02 15:35:17;;;;;;;3.20;3.10;;;13.40;99.90;;;;;;6337374;28;20433;-68
2022/06/02 15:39:00;;;;;;;3.00;3.00;;;13.50;99.90;;;;;;6336927;28;20340;-69
2022/06/02 15:42:40;;;;;;;3.22;3.08;;;13.50;99.90;;;;;;6336828;28;20269;-70
2022/06/02 15:46:44;;;;;;;3.30;3.20;;;13.50;99.90;;;;;;6308603;28;20263;-69
2022/06/02 15:50:55;;;;;;;3.10;3.10;;;13.60;99.90;;;;;;6324917;28;20290;-70
2022/06/02 15:55:04;;;;;;;3.08;2.90;;;13.60;99.90;;;;;;6340690;28;20286;-69
2022/06/02 15:58:56;;;;;;;3.65;3.35;;;13.70;99.90;;;;;;6323873;28;20565;-69
2022/06/02 16:03:08;;;;;;;3.10;3.00;;;13.80;99.90;;;;;;6340947;28;20293;-70
2022/06/02 16:06:45;;;;;;;2.97;2.95;;;13.80;99.90;;;;;;6337682;28;20437;-69
2022/06/02 16:14:42;;;;;;;3.15;3.05;;;13.80;99.90;;;;;;6336010;28;20297;-70
2022/06/02 16:18:33;;;;;;;2.85;2.80;;;13.80;99.90;;;;;;6335601;28;20510;-71
2022/06/02 16:22:07;;;;;;;2.60;2.60;;;13.80;99.90;;;;;;6321828;28;20274;-70
2022/06/02 16:25:36;;;;;;;2.58;2.58;;;13.80;99.90;;;;;;6336100;28;20278;-69
2022/06/02 16:29:19;;;;;;;5.25;2.95;;;13.80;99.90;;;;;;6327748;28;20297;-69
2022/06/02 16:32:48;;;;;;;2.80;2.70;;;13.90;99.90;;;;;;6335289;28;20298;-71
2022/06/02 16:36:20;;;;;;;2.60;2.60;;;14.00;99.90;;;;;;6335764;28;20423;-67
2022/06/02 16:39:53;;;;;;;2.83;2.65;;;14.00;99.90;;;;;;6335704;28;20482;-69
2022/06/02 16:44:02;;;;;;;2.88;2.88;;;14.00;99.90;;;;;;6335068;28;20296;-69
2022/06/02 16:47:36;;;;;;;2.65;2.65;;;14.10;99.90;;;;;;6258963;28;20291;-68
2022/06/02 16:51:08;;;;;;;2.78;2.72;;;14.20;99.90;;;;;;6329155;28;20289;-70
2022/06/02 16:55:14;;;;;;;2.70;2.60;;;14.20;99.90;;;;;;6335338;28;20502;-68
2022/06/02 16:59:07;;;;;;;2.40;2.40;;;14.20;99.90;;;;;;6334962;28;20297;-69
2022/06/02 17:02:30;;;;;;;2.60;2.60;;;14.20;99.90;;;;;;6334365;28;20294;-69
2022/06/02 17:05:56;;;;;;;3.55;2.40;;;14.20;99.90;;;;;;6335583;28;20270;-69
2022/06/02 17:09:36;;;;;;;2.22;2.22;;;14.30;99.90;;;;;;6334648;28;20322;-69
2022/06/02 17:12:46;;;;;;;2.53;2.42;;;14.30;99.90;;;;;;6305193;28;20286;-68
2022/06/02 17:16:49;;;;;;;2.10;1.98;;;14.30;99.90;;;;;;6310606;28;20310;-69
2022/06/02 17:20:29;;;;;;;2.70;2.10;;;14.30;99.90;;;;;;6282125;28;20298;-68
2022/06/02 17:23:54;;;;;;;2.03;2.03;;;14.40;99.90;;;;;;6295695;28;20298;-68
2022/06/02 17:27:25;;;;;;;2.22;2.22;;;14.50;99.90;;;;;;6334994;28;20270;-69
2022/06/02 17:30:44;;;;;;;2.30;2.30;;;14.50;99.90;;;;;;6335393;28;20277;-69
2022/06/02 17:33:53;;;;;;;2.65;2.47;;;14.60;99.90;;;;;;6334435;28;20303;-67
2022/06/02 17:37:14;;;;;;;2.50;2.50;;;14.60;99.90;;;;;;6335222;28;20269;-67
2022/06/02 17:40:35;;;;;;;2.88;2.72;;;14.50;99.90;;;;;;6334732;28;20286;-68
2022/06/02 17:43:50;;;;;;;2.47;2.45;;;14.40;99.90;;;;;;6334057;28;20314;-68
2022/06/02 17:47:45;;;;;;;4.00;2.72;;;14.40;99.90;;;;;;6334599;28;20266;-70
2022/06/02 17:51:08;;;;;;;2.90;2.80;;;14.40;99.90;;;;;;6333976;28;20433;-67
2022/06/02 17:54:44;;;;;;;2.95;2.75;;;14.50;99.90;;;;;;6334626;28;20294;-67
2022/06/02 17:58:23;;;;;;;3.30;2.85;;;14.40;99.90;;;;;;6333471;28;20320;-70
2022/06/02 18:01:59;;;;;;;3.55;3.20;;;14.50;99.90;;;;;;6306261;28;20298;-68
2022/06/02 18:05:33;;;;;;;3.33;3.13;;;14.50;99.90;;;;;;6333677;28;20455;-68
2022/06/02 18:09:08;;;;;;;3.35;3.25;;;14.40;99.90;;;;;;6333917;28;20290;-68
2022/06/02 18:12:48;;;;;;;3.55;3.35;;;14.40;99.90;;;;;;6306007;28;20546;-68
2022/06/02 18:16:17;;;;;;;3.67;3.47;;;14.40;99.90;;;;;;6310046;28;20266;-67
2022/06/02 18:19:40;;;;;;;3.75;3.55;;;14.40;99.90;;;;;;6308233;28;20583;-66
2022/06/02 18:23:31;;;;;;;3.90;3.30;;;14.40;99.90;;;;;;6309708;28;20291;-68
2022/06/02 18:27:33;;;;;;;5.10;3.45;;;14.30;99.90;;;;;;6326084;28;20456;-70
2022/06/02 18:31:18;;;;;;;3.97;3.67;;;14.40;99.90;;;;;;6295053;28;20278;-71